Track Склярова Карина

Time Latitude Longitude Accuracy (66% radius in meters) Altitude (meters) Speed (km/hour) Bearing (degrees) Battery (%) GPS flag
02:55:26 51.897808 107.663801 3 649 1.7799999713898 254.30000305176 40 1 delete
02:55:22 51.897818 107.663907 3 648 1.6699999570847 249.30000305176 40 1 delete
02:55:20 51.897830 107.663948 3 649 1.5900000333786 236.30000305176 40 1 delete
02:55:13 51.897897 107.664074 4 651 1.7799999713898 217.5 40 1 delete
02:55:11 51.897930 107.664111 4 651 2.8499999046326 225 40 1 delete
02:55:09 51.897970 107.664173 4 652 2.8800001144409 226.39999389648 40 1 delete
02:55:05 51.898042 107.664284 4 652 2.9400000572205 232.39999389648 40 1 delete
02:55:01 51.898105 107.664431 3 653 3.0899999141693 236.69999694824 40 1 delete
02:55:00 51.898120 107.664469 3 653 3.3499999046326 236.10000610352 40 1 delete
02:54:57 51.898173 107.664585 3 654 3.3299999237061 236.19999694824 40 1 delete
02:54:54 51.898228 107.664708 3 656 3.4400000572205 236.89999389648 40 1 delete
02:54:48 51.898317 107.664836 3 659 0.64999997615814 235.60000610352 40 1 delete
02:54:38 51.898322 107.664824 3 661 0 0 40 1 delete
02:54:27 51.898315 107.664809 3 659 0 0 40 1 delete
02:54:16 51.898299 107.664835 3 654 0 0 40 1 delete
02:54:05 51.898298 107.664834 4 654 0 0 40 1 delete
02:53:54 51.898298 107.664835 4 654 0 0 40 1 delete
02:53:43 51.898296 107.664824 4 654 0 0 40 1 delete
02:53:32 51.898287 107.664832 4 656 0 0 40 1 delete
02:53:21 51.898291 107.664850 3 657 0 0 40 1 delete
02:53:11 51.898284 107.664878 3 656 1.2300000190735 265.39999389648 40 1 delete
02:53:10 51.898284 107.664898 3 656 1.4299999475479 267.79998779297 40 1 delete
02:53:04 51.898276 107.665039 3 656 1.5900000333786 265.39999389648 40 1 delete
02:52:59 51.898273 107.665185 3 657 1.4199999570847 270.79998779297 40 1 delete
02:52:50 51.898264 107.665334 3 656 1.0099999904633 256.5 40 1 delete
02:52:48 51.898263 107.665363 3 654 0.68000000715256 256.39999389648 40 1 delete
02:52:37 51.898212 107.665393 5 651 0 0 40 1 delete
02:52:26 51.898224 107.665455 10 652 0 0 40 1 delete
02:52:25 51.898195 107.665434 11 651 0 0 40 1 delete
02:52:15 51.898207 107.665284 17 656 0 0 40 1 delete
02:52:05 51.898207 107.665284 22 656 0 0 40 1 delete
02:51:54 51.898208 107.665283 14 656 0 0 40 1 delete
02:51:43 51.898219 107.665303 13 656 0 0 40 1 delete
02:51:30 51.898220 107.665305 25 656 0 0 40 1 delete
02:51:19 51.898219 107.665302 15 656 0 0 40 1 delete
02:51:08 51.898207 107.665290 14 655 0 0 40 1 delete
02:50:57 51.898206 107.665286 14 655 0 0 40 1 delete
02:50:46 51.898207 107.665285 15 655 0 0 40 1 delete
02:50:36 51.898204 107.665287 28 655 0 0 40 1 delete
02:50:25 51.898201 107.665284 14 656 0 0 40 1 delete
02:50:19 51.898212 107.665284 17 657 0 0 40 1 delete
02:50:16 51.898314 107.665245 27 675 0 0 40 1 delete